Time;durP1;ratioP1;P1;durP2;ratioP2;P2;SDS_P1;SDS_P2;PMS_P1;PMS_P2;Temp;Humidity;BMP_temperature;BMP_pressure;BME280_temperature;BME280_humidity;BME280_pressure;Samples;Min_cycle;Max_cycle;Signal;HPM_P1;HPM_P2
2023/06/27 00:01:18;;;;;;;;;;;26.10;35.00;;;;;;1509819;77;729;-76
2023/06/27 00:03:20;;;;;;;;;;;26.10;34.70;;;;;;1502056;77;693;-77
2023/06/27 00:05:22;;;;;;;;;;;26.10;34.70;;;;;;1499596;77;731;-77
2023/06/27 00:07:27;;;;;;;;;;;26.00;34.70;;;;;;1510463;77;1539;-78
2023/06/27 00:09:27;;;;;;;;;;;26.10;34.60;;;;;;1509225;77;1682;-78
2023/06/27 00:11:29;;;;;;;;;;;26.10;34.90;;;;;;1514872;77;793;-79
2023/06/27 00:13:31;;;;;;;;;;;26.10;34.80;;;;;;1510445;77;755;-78
2023/06/27 00:15:34;;;;;;;;;;;26.10;34.70;;;;;;1504723;77;1945;-79
2023/06/27 00:17:37;;;;;;;;;;;26.10;34.70;;;;;;1506442;77;725;-79
2023/06/27 00:19:39;;;;;;;;;;;26.10;34.70;;;;;;1505329;77;1153;-79
2023/06/27 00:21:41;;;;;;;;;;;26.00;34.60;;;;;;1512938;77;1576;-76
2023/06/27 00:23:43;;;;;;;;;;;26.00;34.50;;;;;;1505547;77;728;-75
2023/06/27 00:25:45;;;;;;;;;;;26.00;34.40;;;;;;1516723;77;791;-77
2023/06/27 00:27:47;;;;;;;;;;;26.00;34.40;;;;;;1500634;77;760;-77
2023/06/27 00:29:49;;;;;;;;;;;26.00;34.30;;;;;;1506191;77;1120;-77
2023/06/27 00:31:51;;;;;;;;;;;26.00;34.30;;;;;;1514293;77;737;-76
2023/06/27 00:33:53;;;;;;;;;;;26.00;34.40;;;;;;1515144;77;731;-77
2023/06/27 00:35:55;;;;;;;;;;;26.10;34.40;;;;;;1504629;77;1950;-77
2023/06/27 00:37:56;;;;;;;;;;;26.00;34.50;;;;;;1504441;77;732;-73
2023/06/27 00:39:58;;;;;;;;;;;26.00;34.40;;;;;;1495699;77;1187;-76
2023/06/27 00:42:00;;;;;;;;;;;26.00;34.40;;;;;;1506318;77;736;-78
2023/06/27 00:44:03;;;;;;;;;;;26.00;34.30;;;;;;1511271;77;724;-77
2023/06/27 00:46:06;;;;;;;;;;;26.00;34.30;;;;;;1500848;77;742;-77
2023/06/27 00:48:08;;;;;;;;;;;26.00;34.40;;;;;;1507056;77;1178;-77
2023/06/27 00:50:10;;;;;;;;;;;26.00;34.60;;;;;;1510588;77;1665;-78
2023/06/27 00:52:11;;;;;;;;;;;26.00;34.70;;;;;;1500043;77;603;-79
2023/06/27 00:54:14;;;;;;;;;;;26.00;34.30;;;;;;1509879;77;1938;-79
2023/06/27 00:56:15;;;;;;;;;;;26.00;34.40;;;;;;1487291;77;786;-78
2023/06/27 00:58:18;;;;;;;;;;;26.00;34.30;;;;;;1513563;77;1158;-78
2023/06/27 01:00:20;;;;;;;;;;;26.00;34.20;;;;;;1513596;77;710;-77
2023/06/27 01:02:23;;;;;;;;;;;26.00;34.40;;;;;;1507850;77;1306;-77
2023/06/27 01:04:25;;;;;;;;;;;26.00;34.30;;;;;;1497353;77;767;-77
2023/06/27 01:06:44;;;;;;;;;;;26.00;34.30;;;;;;1500657;77;688;-77
2023/06/27 01:08:47;;;;;;;;;;;26.00;34.20;;;;;;1509618;77;1154;-78
2023/06/27 01:10:51;;;;;;;;;;;26.00;34.10;;;;;;1519071;77;705;-77
2023/06/27 01:12:57;;;;;;;;;;;25.90;33.70;;;;;;1509606;77;1819;-78
2023/06/27 01:14:59;;;;;;;;;;;26.00;34.00;;;;;;1503838;77;1936;-77
2023/06/27 01:17:01;;;;;;;;;;;25.90;33.60;;;;;;1506328;77;1340;-77
2023/06/27 01:19:03;;;;;;;;;;;26.00;34.10;;;;;;1504353;77;1150;-77
2023/06/27 01:21:08;;;;;;;;;;;25.90;33.50;;;;;;1523634;77;813;-75
2023/06/27 01:23:10;;;;;;;;;;;25.90;33.60;;;;;;1516113;77;1180;-77
2023/06/27 01:25:12;;;;;;;;;;;26.00;34.40;;;;;;1515314;77;743;-77
2023/06/27 01:27:15;;;;;;;;;;;26.00;34.40;;;;;;1521394;77;711;-76
2023/06/27 01:29:16;;;;;;;;;;;25.90;33.60;;;;;;1509368;77;1115;-75
2023/06/27 01:31:26;;;;;;;;;;;25.90;33.90;;;;;;1513217;77;1594;-74
2023/06/27 01:33:30;;;;;;;;;;;25.80;33.60;;;;;;1501720;77;661;-76
2023/06/27 01:35:46;;;;;;;;;;;25.80;33.70;;;;;;1519683;77;1932;-76
2023/06/27 01:37:52;;;;;;;;;;;25.70;33.80;;;;;;1513477;77;692;-76
2023/06/27 01:40:02;;;;;;;;;;;25.70;33.80;;;;;;1516880;77;1115;-75
2023/06/27 01:42:06;;;;;;;;;;;25.60;33.90;;;;;;1508880;77;698;-75
2023/06/27 01:44:08;;;;;;;;;;;25.60;34.00;;;;;;1507134;77;729;-76
2023/06/27 01:46:10;;;;;;;;;;;25.60;34.10;;;;;;1516232;77;1651;-76
2023/06/27 01:48:12;;;;;;;;;;;25.70;33.90;;;;;;1503737;76;1169;-77
2023/06/27 01:50:13;;;;;;;;;;;25.60;33.90;;;;;;1516947;77;825;-77
2023/06/27 01:52:15;;;;;;;;;;;25.60;34.00;;;;;;1509888;77;748;-77
2023/06/27 01:54:17;;;;;;;;;;;25.50;33.90;;;;;;1506213;77;828;-75
2023/06/27 01:56:19;;;;;;;;;;;25.50;33.90;;;;;;1507930;77;1919;-77
2023/06/27 01:58:21;;;;;;;;;;;25.50;34.10;;;;;;1496829;77;1158;-77
2023/06/27 02:00:23;;;;;;;;;;;25.50;34.20;;;;;;1508666;77;1634;-77
2023/06/27 02:02:25;;;;;;;;;;;25.50;34.10;;;;;;1511526;77;699;-77
2023/06/27 02:04:26;;;;;;;;;;;25.50;34.00;;;;;;1509090;77;800;-77
2023/06/27 02:06:28;;;;;;;;;;;25.60;34.00;;;;;;1522652;77;833;-76
2023/06/27 02:08:30;;;;;;;;;;;25.60;33.90;;;;;;1511229;77;1120;-76
2023/06/27 02:10:32;;;;;;;;;;;25.60;33.80;;;;;;1511073;77;733;-76
2023/06/27 02:12:34;;;;;;;;;;;25.50;34.30;;;;;;1504916;77;704;-76
2023/06/27 02:14:36;;;;;;;;;;;25.50;33.90;;;;;;1493827;77;1932;-74
2023/06/27 02:16:38;;;;;;;;;;;25.50;33.90;;;;;;1503105;77;693;-76
2023/06/27 02:18:39;;;;;;;;;;;25.50;33.90;;;;;;1502027;77;1167;-77
2023/06/27 02:20:41;;;;;;;;;;;25.50;33.80;;;;;;1510381;77;665;-75
2023/06/27 02:22:43;;;;;;;;;;;25.50;33.90;;;;;;1505184;77;785;-76
2023/06/27 02:24:45;;;;;;;;;;;25.50;34.00;;;;;;1513144;77;788;-76
2023/06/27 02:26:47;;;;;;;;;;;25.50;33.90;;;;;;1515020;77;1350;-76
2023/06/27 02:28:49;;;;;;;;;;;25.50;34.00;;;;;;1497192;77;1170;-76
2023/06/27 02:30:51;;;;;;;;;;;25.50;34.10;;;;;;1507251;77;780;-76
2023/06/27 02:32:53;;;;;;;;;;;25.50;34.20;;;;;;1509894;77;605;-77
2023/06/27 02:34:54;;;;;;;;;;;25.60;34.00;;;;;;1505286;77;1945;-76
2023/06/27 02:36:56;;;;;;;;;;;25.60;34.10;;;;;;1509845;77;648;-73
2023/06/27 02:39:01;;;;;;;;;;;25.60;33.90;;;;;;1501141;77;1190;-76
2023/06/27 02:41:03;;;;;;;;;;;25.60;33.80;;;;;;1496564;77;1581;-73
2023/06/27 02:43:06;;;;;;;;;;;25.60;33.90;;;;;;1505516;77;745;-74
2023/06/27 02:45:08;;;;;;;;;;;25.60;33.80;;;;;;1506028;77;824;-75
2023/06/27 02:47:10;;;;;;;;;;;25.50;33.90;;;;;;1513244;77;768;-78
2023/06/27 02:49:11;;;;;;;;;;;25.60;33.80;;;;;;1502720;77;1195;-76
2023/06/27 02:51:13;;;;;;;;;;;25.50;34.00;;;;;;1514130;77;813;-76
2023/06/27 02:53:15;;;;;;;;;;;25.50;33.80;;;;;;1505907;77;743;-76
2023/06/27 02:55:17;;;;;;;;;;;25.50;33.80;;;;;;1519689;77;1939;-77
2023/06/27 02:57:20;;;;;;;;;;;25.50;33.90;;;;;;1510249;77;677;-76
2023/06/27 02:59:22;;;;;;;;;;;25.50;33.90;;;;;;1507709;77;1177;-77
2023/06/27 03:01:23;;;;;;;;;;;25.60;33.80;;;;;;1523816;77;754;-76
2023/06/27 03:03:25;;;;;;;;;;;25.60;33.80;;;;;;1512820;77;676;-77
2023/06/27 03:05:27;;;;;;;;;;;25.60;33.80;;;;;;1502446;77;721;-78
2023/06/27 03:07:29;;;;;;;;;;;25.60;33.70;;;;;;1512412;77;876;-77
2023/06/27 03:09:32;;;;;;;;;;;25.60;33.80;;;;;;1521701;77;1580;-76
2023/06/27 03:11:34;;;;;;;;;;;25.60;33.80;;;;;;1509841;77;667;-77
2023/06/27 03:13:36;;;;;;;;;;;25.50;33.90;;;;;;1496694;77;791;-78
2023/06/27 03:15:38;;;;;;;;;;;25.60;33.90;;;;;;1505155;77;1937;-77
2023/06/27 03:17:40;;;;;;;;;;;25.50;33.90;;;;;;1502876;77;745;-77
2023/06/27 03:19:42;;;;;;;;;;;25.50;33.90;;;;;;1512768;77;1091;-77
2023/06/27 03:21:44;;;;;;;;;;;25.50;33.90;;;;;;1514449;77;803;-74
2023/06/27 03:23:46;;;;;;;;;;;25.50;34.00;;;;;;1512452;77;1552;-76
2023/06/27 03:25:48;;;;;;;;;;;25.40;34.10;;;;;;1505763;77;800;-76
2023/06/27 03:27:49;;;;;;;;;;;25.40;34.00;;;;;;1506837;77;717;-76
2023/06/27 03:29:51;;;;;;;;;;;25.50;34.00;;;;;;1510906;77;1133;-76
2023/06/27 03:31:57;;;;;;;;;;;25.40;34.00;;;;;;1510954;77;772;-76
2023/06/27 03:33:59;;;;;;;;;;;25.50;34.00;;;;;;1505546;77;1717;-72
2023/06/27 03:36:00;;;;;;;;;;;25.50;34.10;;;;;;1527488;77;1932;-74
2023/06/27 03:38:02;;;;;;;;;;;25.60;33.90;;;;;;1505276;77;1526;-74
2023/06/27 03:40:05;;;;;;;;;;;25.60;33.90;;;;;;1519536;77;687;-76
2023/06/27 03:42:07;;;;;;;;;;;25.60;34.10;;;;;;1510423;77;564;-76
2023/06/27 03:44:08;;;;;;;;;;;25.60;34.00;;;;;;1502534;77;735;-75
2023/06/27 03:46:14;;;;;;;;;;;25.60;34.10;;;;;;1506021;77;761;-75
2023/06/27 03:48:16;;;;;;;;;;;25.70;34.00;;;;;;1504941;77;1112;-75
2023/06/27 03:50:17;;;;;;;;;;;25.70;33.90;;;;;;1508764;77;836;-74
2023/06/27 03:52:19;;;;;;;;;;;25.60;34.10;;;;;;1509964;77;1591;-76
2023/06/27 03:54:21;;;;;;;;;;;25.50;34.00;;;;;;1504387;77;804;-75
2023/06/27 03:56:23;;;;;;;;;;;25.60;34.30;;;;;;1513626;77;1924;-73
2023/06/27 03:58:25;;;;;;;;;;;25.50;34.30;;;;;;1498726;77;1182;-75
2023/06/27 04:00:27;;;;;;;;;;;25.50;34.30;;;;;;1513303;77;777;-74
2023/06/27 04:02:29;;;;;;;;;;;25.60;34.20;;;;;;1505306;77;922;-76
2023/06/27 04:04:31;;;;;;;;;;;25.50;34.40;;;;;;1506335;77;747;-74
2023/06/27 04:06:32;;;;;;;;;;;25.60;34.30;;;;;;1503446;77;1551;-75
2023/06/27 04:08:34;;;;;;;;;;;25.60;34.30;;;;;;1511677;77;1169;-75
2023/06/27 04:10:36;;;;;;;;;;;25.60;34.40;;;;;;1504089;77;774;-75
2023/06/27 04:12:38;;;;;;;;;;;25.60;34.50;;;;;;1514289;77;701;-74
2023/06/27 04:14:40;;;;;;;;;;;25.60;34.50;;;;;;1502830;77;730;-75
2023/06/27 04:16:42;;;;;;;;;;;25.60;34.50;;;;;;1505617;77;1945;-74
2023/06/27 04:18:44;;;;;;;;;;;25.60;34.40;;;;;;1510901;77;1152;-75
2023/06/27 04:20:45;;;;;;;;;;;25.60;34.40;;;;;;1516280;77;1183;-75
2023/06/27 04:22:47;;;;;;;;;;;25.60;34.40;;;;;;1514639;77;622;-75
2023/06/27 04:24:49;;;;;;;;;;;25.60;34.40;;;;;;1517550;77;588;-70
2023/06/27 04:26:51;;;;;;;;;;;25.60;34.60;;;;;;1512956;77;742;-74
2023/06/27 04:28:53;;;;;;;;;;;25.60;34.50;;;;;;1491971;77;1212;-74
2023/06/27 04:30:55;;;;;;;;;;;25.50;34.70;;;;;;1520709;77;780;-76
2023/06/27 04:32:57;;;;;;;;;;;25.50;34.70;;;;;;1519412;77;734;-73
2023/06/27 04:34:59;;;;;;;;;;;25.60;34.70;;;;;;1515251;77;1180;-75
2023/06/27 04:37:00;;;;;;;;;;;25.60;34.70;;;;;;1508239;77;1942;-76
2023/06/27 04:39:05;;;;;;;;;;;25.60;34.40;;;;;;1515303;77;1167;-75
2023/06/27 04:41:06;;;;;;;;;;;25.60;34.40;;;;;;1512614;77;1656;-74
2023/06/27 04:43:08;;;;;;;;;;;25.70;34.30;;;;;;1509153;77;736;-75
2023/06/27 04:45:10;;;;;;;;;;;25.60;34.30;;;;;;1502630;77;739;-77
2023/06/27 04:47:12;;;;;;;;;;;25.60;34.20;;;;;;1497527;77;760;-75
2023/06/27 04:49:14;;;;;;;;;;;25.60;34.20;;;;;;1504779;77;1533;-76
2023/06/27 04:51:15;;;;;;;;;;;25.60;34.40;;;;;;1512809;77;790;-77
2023/06/27 04:53:20;;;;;;;;;;;25.60;34.40;;;;;;1509056;77;766;-77
2023/06/27 04:55:23;;;;;;;;;;;25.60;34.50;;;;;;1515049;77;794;-76
2023/06/27 04:57:25;;;;;;;;;;;25.60;34.50;;;;;;1508663;77;1935;-74
2023/06/27 04:59:28;;;;;;;;;;;25.60;34.50;;;;;;1519690;77;1162;-72
2023/06/27 05:01:31;;;;;;;;;;;25.60;34.50;;;;;;1504666;77;1569;-77
2023/06/27 05:03:33;;;;;;;;;;;25.50;34.60;;;;;;1500292;77;754;-73
2023/06/27 05:05:35;;;;;;;;;;;25.40;34.80;;;;;;1509128;77;732;-73
2023/06/27 05:07:37;;;;;;;;;;;25.50;35.00;;;;;;1514662;77;728;-75
2023/06/27 05:09:39;;;;;;;;;;;25.40;35.00;;;;;;1513971;77;1141;-77
2023/06/27 05:11:41;;;;;;;;;;;25.30;35.10;;;;;;1504598;77;643;-76
2023/06/27 05:13:43;;;;;;;;;;;25.30;35.40;;;;;;1505484;77;730;-76
2023/06/27 05:15:45;;;;;;;;;;;25.30;35.60;;;;;;1505308;77;1926;-76
2023/06/27 05:17:51;;;;;;;;;;;25.20;35.70;;;;;;1494621;77;771;-75
2023/06/27 05:19:53;;;;;;;;;;;25.20;35.70;;;;;;1503367;77;1230;-74
2023/06/27 05:21:55;;;;;;;;;;;25.10;35.80;;;;;;1510024;77;756;-74
2023/06/27 05:23:57;;;;;;;;;;;25.10;35.80;;;;;;1503405;77;718;-72
2023/06/27 05:25:59;;;;;;;;;;;25.00;35.90;;;;;;1502819;77;851;-74
2023/06/27 05:28:01;;;;;;;;;;;25.00;35.80;;;;;;1483539;77;716;-73
2023/06/27 05:30:03;;;;;;;;;;;25.00;36.00;;;;;;1509049;77;1568;-74
2023/06/27 05:32:05;;;;;;;;;;;25.00;35.90;;;;;;1505860;77;609;-73
2023/06/27 05:34:08;;;;;;;;;;;25.00;36.00;;;;;;1513117;77;774;-74
2023/06/27 05:36:10;;;;;;;;;;;25.00;36.10;;;;;;1499847;77;1935;-74
2023/06/27 05:38:12;;;;;;;;;;;24.90;36.10;;;;;;1504502;77;1163;-72
2023/06/27 05:40:13;;;;;;;;;;;24.90;36.00;;;;;;1502358;77;727;-74
2023/06/27 05:42:15;;;;;;;;;;;24.90;36.00;;;;;;1518818;77;730;-74
2023/06/27 05:44:17;;;;;;;;;;;25.00;36.10;;;;;;1507576;77;1369;-74
2023/06/27 05:46:19;;;;;;;;;;;24.90;36.00;;;;;;1501984;77;790;-74
2023/06/27 05:48:21;;;;;;;;;;;24.90;36.10;;;;;;1503932;77;1204;-71
2023/06/27 05:50:23;;;;;;;;;;;24.90;36.10;;;;;;1520386;77;777;-74
2023/06/27 05:52:25;;;;;;;;;;;24.80;36.00;;;;;;1513265;77;809;-74
2023/06/27 05:54:26;;;;;;;;;;;24.80;36.00;;;;;;1517957;77;795;-74
2023/06/27 05:56:28;;;;;;;;;;;24.80;35.90;;;;;;1494904;77;1944;-75
2023/06/27 05:58:30;;;;;;;;;;;24.80;35.90;;;;;;1518840;77;1567;-74
2023/06/27 06:00:32;;;;;;;;;;;24.80;35.80;;;;;;1512268;77;786;-76
2023/06/27 06:02:34;;;;;;;;;;;24.80;35.80;;;;;;1500995;77;718;-76
2023/06/27 06:04:36;;;;;;;;;;;24.80;35.90;;;;;;1514059;77;699;-74
2023/06/27 06:06:38;;;;;;;;;;;24.80;36.00;;;;;;1516789;77;786;-72
2023/06/27 06:08:40;;;;;;;;;;;24.80;36.00;;;;;;1496429;77;1112;-75
2023/06/27 06:10:41;;;;;;;;;;;24.90;36.10;;;;;;1511395;77;679;-76
2023/06/27 06:12:43;;;;;;;;;;;24.90;36.10;;;;;;1505298;77;1538;-74
2023/06/27 06:14:45;;;;;;;;;;;24.80;36.00;;;;;;1499978;77;692;-76
2023/06/27 06:16:47;;;;;;;;;;;24.80;35.90;;;;;;1508617;77;1940;-76
2023/06/27 06:18:49;;;;;;;;;;;24.80;35.80;;;;;;1509650;76;1164;-73
2023/06/27 06:20:51;;;;;;;;;;;24.80;35.80;;;;;;1509630;77;729;-76
2023/06/27 06:22:53;;;;;;;;;;;24.80;35.80;;;;;;1514452;77;752;-73
2023/06/27 06:24:55;;;;;;;;;;;24.80;35.90;;;;;;1504690;77;768;-75
2023/06/27 06:26:56;;;;;;;;;;;24.80;35.90;;;;;;1500033;77;1501;-72
2023/06/27 06:28:58;;;;;;;;;;;24.90;35.90;;;;;;1503374;77;1131;-75
2023/06/27 06:31:00;;;;;;;;;;;24.90;36.00;;;;;;1508978;77;725;-73
2023/06/27 06:33:02;;;;;;;;;;;24.90;35.90;;;;;;1510704;77;741;-75
2023/06/27 06:35:04;;;;;;;;;;;24.90;35.90;;;;;;1519227;77;678;-75
2023/06/27 06:37:07;;;;;;;;;;;24.90;35.90;;;;;;1521446;77;1937;-75
2023/06/27 06:39:09;;;;;;;;;;;24.90;35.90;;;;;;1512647;77;1161;-75
2023/06/27 06:41:11;;;;;;;;;;;24.90;36.00;;;;;;1504932;77;1479;-76
2023/06/27 06:43:13;;;;;;;;;;;25.00;36.00;;;;;;1498844;77;624;-76
2023/06/27 06:45:14;;;;;;;;;;;24.90;36.00;;;;;;1503716;77;758;-76
2023/06/27 06:47:17;;;;;;;;;;;25.00;36.00;;;;;;1500050;77;831;-77
2023/06/27 06:49:19;;;;;;;;;;;24.90;36.00;;;;;;1504257;76;1162;-76
2023/06/27 06:51:22;;;;;;;;;;;24.90;36.00;;;;;;1518235;77;802;-76
2023/06/27 06:53:24;;;;;;;;;;;24.90;36.00;;;;;;1506620;77;1640;-76
2023/06/27 06:55:26;;;;;;;;;;;24.90;36.10;;;;;;1503605;77;1625;-76
2023/06/27 06:57:28;;;;;;;;;;;24.90;36.10;;;;;;1505685;77;1919;-76
2023/06/27 06:59:29;;;;;;;;;;;24.80;36.10;;;;;;1505156;77;1162;-76
2023/06/27 07:01:31;;;;;;;;;;;25.00;36.10;;;;;;1508505;77;707;-76
2023/06/27 07:03:34;;;;;;;;;;;24.90;36.10;;;;;;1509971;77;661;-75
2023/06/27 07:05:36;;;;;;;;;;;24.90;36.00;;;;;;1499108;77;777;-76
2023/06/27 07:07:38;;;;;;;;;;;24.90;36.00;;;;;;1516129;77;751;-75
2023/06/27 07:09:39;;;;;;;;;;;24.90;36.10;;;;;;1516710;77;1546;-76
2023/06/27 07:11:41;;;;;;;;;;;24.80;36.00;;;;;;1516561;77;784;-75
2023/06/27 07:13:43;;;;;;;;;;;24.80;36.00;;;;;;1512214;77;714;-76
2023/06/27 07:15:45;;;;;;;;;;;24.80;36.10;;;;;;1504598;77;726;-76
2023/06/27 07:17:47;;;;;;;;;;;24.80;36.10;;;;;;1512187;77;1927;-73
2023/06/27 07:19:49;;;;;;;;;;;24.80;36.10;;;;;;1507340;77;1137;-75
2023/06/27 07:21:51;;;;;;;;;;;24.80;36.00;;;;;;1504636;77;725;-75
2023/06/27 07:23:53;;;;;;;;;;;24.80;36.00;;;;;;1514421;77;1393;-76
2023/06/27 07:25:55;;;;;;;;;;;24.90;36.00;;;;;;1508186;77;761;-73
2023/06/27 07:27:57;;;;;;;;;;;24.90;36.00;;;;;;1511376;77;896;-73
2023/06/27 07:29:58;;;;;;;;;;;24.90;36.00;;;;;;1507926;77;1165;-75
2023/06/27 07:32:00;;;;;;;;;;;24.90;36.00;;;;;;1510224;77;669;-74
2023/06/27 07:34:02;;;;;;;;;;;24.90;36.00;;;;;;1514257;77;747;-74
2023/06/27 07:36:04;;;;;;;;;;;24.90;36.00;;;;;;1499039;77;766;-74
2023/06/27 07:38:06;;;;;;;;;;;24.90;36.00;;;;;;1511819;77;1949;-73
2023/06/27 07:40:08;;;;;;;;;;;25.00;36.00;;;;;;1513860;77;682;-73
2023/06/27 07:42:11;;;;;;;;;;;25.00;36.80;;;;;;1493838;77;665;-74
2023/06/27 07:44:13;;;;;;;;;;;25.00;36.80;;;;;;1502361;77;743;-74
2023/06/27 07:46:15;;;;;;;;;;;25.20;36.50;;;;;;1501592;77;696;-75
2023/06/27 07:48:17;;;;;;;;;;;25.20;36.30;;;;;;1509440;77;1191;-74
2023/06/27 07:50:19;;;;;;;;;;;25.30;36.20;;;;;;1502109;77;1526;-74
2023/06/27 07:52:21;;;;;;;;;;;25.30;36.30;;;;;;1505903;77;679;-75
2023/06/27 07:54:26;;;;;;;;;;;25.40;36.00;;;;;;1495416;77;779;-75
2023/06/27 07:56:26;;;;;;;;;;;25.50;35.70;;;;;;1497825;77;1686;-73
2023/06/27 07:58:28;;;;;;;;;;;25.60;35.60;;;;;;1506371;76;1934;-73
2023/06/27 08:00:30;;;;;;;;;;;25.70;35.50;;;;;;1492633;77;708;-75
2023/06/27 08:02:32;;;;;;;;;;;25.80;35.60;;;;;;1508907;77;783;-74
2023/06/27 08:04:34;;;;;;;;;;;25.80;35.50;;;;;;1504224;77;1374;-73
2023/06/27 08:06:36;;;;;;;;;;;25.80;35.30;;;;;;1505285;77;769;-71
2023/06/27 08:08:38;;;;;;;;;;;25.80;35.10;;;;;;1519003;77;1135;-74
2023/06/27 08:10:41;;;;;;;;;;;25.90;34.90;;;;;;1514989;77;677;-74
2023/06/27 08:12:43;;;;;;;;;;;25.90;34.50;;;;;;1516994;77;600;-74
2023/06/27 08:14:45;;;;;;;;;;;25.90;34.20;;;;;;1513952;77;830;-74
2023/06/27 08:16:47;;;;;;;;;;;25.90;34.20;;;;;;1508623;77;677;-72
2023/06/27 08:18:49;;;;;;;;;;;25.90;34.10;;;;;;1507394;77;1674;-75
2023/06/27 08:20:51;;;;;;;;;;;25.90;33.80;;;;;;1516186;77;663;-74
2023/06/27 08:22:53;;;;;;;;;;;25.90;33.60;;;;;;1507248;77;734;-75
2023/06/27 08:24:54;;;;;;;;;;;25.90;33.50;;;;;;1507629;77;750;-74
2023/06/27 08:26:56;;;;;;;;;;;25.90;33.40;;;;;;1513635;77;564;-71
2023/06/27 08:28:58;;;;;;;;;;;25.90;33.30;;;;;;1519632;77;1107;-74
2023/06/27 08:31:00;;;;;;;;;;;25.90;33.40;;;;;;1510228;77;732;-74
2023/06/27 08:33:04;;;;;;;;;;;25.90;33.40;;;;;;1503264;77;1585;-74
2023/06/27 08:35:06;;;;;;;;;;;25.90;33.10;;;;;;1506915;77;1594;-74
2023/06/27 08:37:08;;;;;;;;;;;25.80;33.20;;;;;;1513286;77;1906;-74
2023/06/27 08:39:10;;;;;;;;;;;25.80;33.30;;;;;;1515453;77;1148;-74
2023/06/27 08:41:12;;;;;;;;;;;25.80;33.20;;;;;;1507707;77;760;-74
2023/06/27 08:43:14;;;;;;;;;;;25.80;33.40;;;;;;1502428;77;741;-74
2023/06/27 08:45:16;;;;;;;;;;;25.90;33.40;;;;;;1506353;77;735;-75
2023/06/27 08:47:18;;;;;;;;;;;25.90;33.40;;;;;;1515868;77;1540;-72
2023/06/27 08:49:22;;;;;;;;;;;25.90;33.20;;;;;;1512172;76;1129;-75
2023/06/27 08:51:24;;;;;;;;;;;25.90;33.10;;;;;;1520345;77;774;-72
2023/06/27 08:53:27;;;;;;;;;;;26.00;33.50;;;;;;1519170;77;811;-71
2023/06/27 08:55:42;;;;;;;;;;;25.90;33.00;;;;;;1513042;77;737;-74
2023/06/27 08:57:44;;;;;;;;;;;26.00;33.20;;;;;;1497014;77;1923;-72
2023/06/27 08:59:46;;;;;;;;;;;25.70;32.80;;;;;;1516134;77;1191;-73
2023/06/27 09:01:48;;;;;;;;;;;25.60;33.40;;;;;;1512921;77;1564;-74
2023/06/27 09:03:50;;;;;;;;;;;25.60;33.00;;;;;;1504309;77;702;-73
2023/06/27 09:05:52;;;;;;;;;;;25.60;33.40;;;;;;1513422;77;735;-73
2023/06/27 09:07:54;;;;;;;;;;;25.70;33.60;;;;;;1520603;77;790;-70
2023/06/27 09:09:56;;;;;;;;;;;25.80;33.50;;;;;;1504077;77;1109;-73
2023/06/27 09:12:00;;;;;;;;;;;25.90;33.30;;;;;;1504844;77;687;-75
2023/06/27 09:14:02;;;;;;;;;;;25.90;33.30;;;;;;1501862;77;996;-76
2023/06/27 09:16:05;;;;;;;;;;;25.90;33.10;;;;;;1516211;77;1570;-75
2023/06/27 09:18:06;;;;;;;;;;;25.90;32.80;;;;;;1510962;77;1949;-74
2023/06/27 09:20:09;;;;;;;;;;;25.90;33.00;;;;;;1510245;77;746;-74
2023/06/27 09:22:11;;;;;;;;;;;25.90;32.90;;;;;;1503588;77;693;-72
2023/06/27 09:24:14;;;;;;;;;;;25.80;32.80;;;;;;1511847;77;752;-74
2023/06/27 09:26:16;;;;;;;;;;;25.70;32.60;;;;;;1493154;77;670;-73
2023/06/27 09:28:18;;;;;;;;;;;25.70;32.80;;;;;;1494345;77;1265;-73
2023/06/27 09:30:20;;;;;;;;;;;25.60;32.80;;;;;;1507361;77;1580;-73
2023/06/27 09:32:22;;;;;;;;;;;25.60;33.30;;;;;;1498320;77;670;-73
2023/06/27 09:34:25;;;;;;;;;;;25.60;33.30;;;;;;1512637;77;966;-74
2023/06/27 09:36:31;;;;;;;;;;;25.60;33.40;;;;;;1506357;77;747;-72
2023/06/27 09:38:33;;;;;;;;;;;25.80;33.50;;;;;;1517817;77;1924;-73
2023/06/27 09:40:35;;;;;;;;;;;25.80;33.60;;;;;;1515023;77;754;-72
2023/06/27 09:42:39;;;;;;;;;;;25.80;32.70;;;;;;1515289;77;619;-71
2023/06/27 09:44:41;;;;;;;;;;;25.90;32.50;;;;;;1512593;76;1687;-73
2023/06/27 09:46:43;;;;;;;;;;;25.90;32.50;;;;;;1516690;77;893;-72
2023/06/27 09:48:45;;;;;;;;;;;25.90;32.20;;;;;;1508021;76;1110;-73
2023/06/27 09:50:47;;;;;;;;;;;25.90;32.30;;;;;;1509077;77;755;-72
2023/06/27 09:52:56;;;;;;;;;;;25.90;32.10;;;;;;1496708;78;640;-72
2023/06/27 09:54:58;;;;;;;;;;;25.90;32.30;;;;;;1519060;77;985;-72
2023/06/27 09:57:00;;;;;;;;;;;25.90;31.80;;;;;;1513187;77;1583;-72
2023/06/27 09:59:11;;;;;;;;;;;25.90;31.70;;;;;;1506805;77;1934;-76
2023/06/27 10:01:13;;;;;;;;;;;25.80;31.90;;;;;;1507142;77;711;-71
2023/06/27 10:03:18;;;;;;;;;;;25.80;31.80;;;;;;1500766;77;682;-72
2023/06/27 10:05:19;;;;;;;;;;;25.70;31.80;;;;;;1501422;77;1694;-72
2023/06/27 10:07:21;;;;;;;;;;;25.60;31.90;;;;;;1514053;77;689;-73
2023/06/27 10:09:23;;;;;;;;;;;25.70;32.00;;;;;;1510420;77;1177;-73
2023/06/27 10:11:25;;;;;;;;;;;25.70;32.10;;;;;;1510591;77;1557;-73
2023/06/27 10:13:27;;;;;;;;;;;25.70;32.40;;;;;;1504675;77;778;-74
2023/06/27 10:15:29;;;;;;;;;;;25.70;32.30;;;;;;1501461;77;721;-73
2023/06/27 10:17:31;;;;;;;;;;;25.70;32.30;;;;;;1493884;77;694;-75
2023/06/27 10:19:34;;;;;;;;;;;25.70;32.50;;;;;;1510759;77;1129;-75
2023/06/27 10:21:36;;;;;;;;;;;25.80;32.60;;;;;;1507291;77;721;-74
2023/06/27 10:23:39;;;;;;;;;;;25.80;32.80;;;;;;1515972;77;740;-73
2023/06/27 10:25:42;;;;;;;;;;;25.90;32.60;;;;;;1515442;77;1338;-75
2023/06/27 10:27:44;;;;;;;;;;;25.90;32.60;;;;;;1506546;77;1204;-73
2023/06/27 10:29:46;;;;;;;;;;;25.90;32.60;;;;;;1515368;77;1114;-75
2023/06/27 10:31:50;;;;;;;;;;;25.90;32.40;;;;;;1494713;77;670;-74
2023/06/27 10:33:51;;;;;;;;;;;25.90;32.30;;;;;;1497602;77;697;-73
2023/06/27 10:35:55;;;;;;;;;;;25.90;32.40;;;;;;1496765;79;675;-74
2023/06/27 10:38:10;;;;;;;;;;;25.90;32.40;;;;;;1509600;77;1994;-72
2023/06/27 10:40:10;;;;;;;;;;;25.80;32.30;;;;;;1505772;77;1512;-73
2023/06/27 10:42:15;;;;;;;;;;;25.70;32.30;;;;;;1505387;77;763;-74
2023/06/27 10:44:16;;;;;;;;;;;25.70;32.30;;;;;;1499338;77;1130;-76
2023/06/27 10:46:19;;;;;;;;;;;25.70;32.20;;;;;;1484091;78;1329;-72
2023/06/27 10:48:27;;;;;;;;;;;25.70;32.30;;;;;;1501278;77;1159;-74
2023/06/27 10:50:33;;;;;;;;;;;25.70;32.40;;;;;;1507625;77;763;-75
2023/06/27 10:52:33;;;;;;;;;;;25.70;32.50;;;;;;1512737;77;1607;-74
2023/06/27 10:54:34;;;;;;;;;;;25.70;32.50;;;;;;1514047;77;1556;-75
2023/06/27 10:56:38;;;;;;;;;;;25.80;32.30;;;;;;1509397;77;702;-74
2023/06/27 10:58:45;;;;;;;;;;;25.70;32.20;;;;;;1517021;76;1949;-74
2023/06/27 11:00:49;;;;;;;;;;;25.70;32.30;;;;;;1518732;77;655;-74
2023/06/27 11:02:54;;;;;;;;;;;25.70;32.30;;;;;;1508091;77;1953;-75
2023/06/27 11:04:55;;;;;;;;;;;25.70;31.80;;;;;;1515503;77;1702;-75
2023/06/27 11:07:00;;;;;;;;;;;25.70;32.10;;;;;;1513373;77;795;-73
2023/06/27 11:09:03;;;;;;;;;;;25.60;32.30;;;;;;1511092;77;1519;-75
2023/06/27 11:11:05;;;;;;;;;;;25.60;32.30;;;;;;1507917;77;688;-75
2023/06/27 11:13:18;;;;;;;;;;;25.70;32.30;;;;;;1503168;77;810;-73
2023/06/27 11:15:20;;;;;;;;;;;25.70;32.30;;;;;;1511359;77;623;-75
2023/06/27 11:17:28;;;;;;;;;;;25.70;32.40;;;;;;1500641;77;689;-74
2023/06/27 11:19:26;;;;;;;;;;;25.70;32.50;;;;;;1502730;77;1941;-75
2023/06/27 11:21:28;;;;;;;;;;;25.70;31.90;;;;;;1507470;77;1393;-72
2023/06/27 11:23:30;;;;;;;;;;;25.70;31.90;;;;;;1502917;77;693;-76
2023/06/27 11:25:34;;;;;;;;;;;25.70;32.10;;;;;;1495632;77;686;-75
2023/06/27 11:27:36;;;;;;;;;;;25.60;32.10;;;;;;1506973;77;1038;-75
2023/06/27 11:29:38;;;;;;;;;;;25.60;32.40;;;;;;1511767;77;1126;-75
2023/06/27 11:31:39;;;;;;;;;;;25.70;32.70;;;;;;1508123;77;673;-71
2023/06/27 11:33:41;;;;;;;;;;;25.70;32.60;;;;;;1502431;77;696;-75
2023/06/27 11:35:43;;;;;;;;;;;25.70;32.70;;;;;;1509286;77;1585;-75
2023/06/27 11:37:46;;;;;;;;;;;25.70;32.40;;;;;;1517642;77;808;-74
2023/06/27 11:39:54;;;;;;;;;;;25.70;32.60;;;;;;1515993;77;1910;-73
2023/06/27 11:41:55;;;;;;;;;;;25.70;32.10;;;;;;1500305;77;826;-73
2023/06/27 11:43:57;;;;;;;;;;;25.60;32.40;;;;;;1510920;77;730;-76
2023/06/27 11:46:00;;;;;;;;;;;25.50;32.50;;;;;;1509063;77;776;-75
2023/06/27 11:48:02;;;;;;;;;;;25.50;32.60;;;;;;1496955;77;767;-75
2023/06/27 11:50:10;;;;;;;;;;;25.40;32.90;;;;;;1519852;77;1583;-76
2023/06/27 11:52:12;;;;;;;;;;;25.50;33.10;;;;;;1504953;77;739;-75
2023/06/27 11:54:15;;;;;;;;;;;25.60;33.20;;;;;;1513072;77;638;-76
2023/06/27 11:56:18;;;;;;;;;;;25.50;33.00;;;;;;1507459;77;1516;-76
2023/06/27 11:58:21;;;;;;;;;;;25.60;32.80;;;;;;1512082;77;1961;-77
2023/06/27 12:00:23;;;;;;;;;;;25.50;32.50;;;;;;1506088;77;1170;-75
2023/06/27 12:02:26;;;;;;;;;;;25.50;32.70;;;;;;1517067;77;775;-73
2023/06/27 12:04:27;;;;;;;;;;;25.50;32.20;;;;;;1505475;77;1347;-75
2023/06/27 12:06:31;;;;;;;;;;;25.50;32.50;;;;;;1518661;77;627;-79
2023/06/27 12:08:34;;;;;;;;;;;25.50;32.30;;;;;;1492233;77;1138;-78
2023/06/27 12:10:37;;;;;;;;;;;25.50;32.30;;;;;;1502504;77;775;-77